Airfield :







YOU CAN JOIN US ON...

 
LOGIN :

Register | Disclaimer

   EN    FR    IT 

 









Legend :    VFR   Marginal VFR   IFR   Intensive IFR   Very Intensive IFR
Visi :
Ceiling :
>= 8 km
>= 3000ft
5 to 8 km
1000 to 3000 ft
1500m to 5 km
500 to 1000 ft
800 to 1500m
200 to 500 ft
< 800m
< 200 ft
Symbols :   Thunderstorms  Fog  Heavy snow  Heavy precipitations  Wind > 20 kt







- Airport Elevation : 232 ft
- IATA code : YQM


CYQM - Greater Moncton International

CURRENT METAR :
  • 181100Z 33006KT 15SM SCT042 05/05 A3024 RMK SC3 SLP245

EXPIRED METARs :
  • 181000Z 32005KT 15SM SCT041 04/04 A3022 RMK SC4 SLP238
  • 180900Z 32006KT 15SM FEW042 03/03 A3021 RMK SC2 SLP234

TAF TAF CYQM
Valid from the 18 at 06:00 until the 19 at 06:00 UTC


180541Z 1806/1906 31005KT P6SM SCT025
TEMPO 1806/1812 BKN025
FM181200 31010G20KT P6SM SCT030
FM181900 03012KT P6SM FEW030
BECMG 1822/1824 VRB03KT RMK NXT FCST BY 181200Z
No reported NOTAMs for that airfield.



MET'MAP, your aeronautical weather chart ! - Copyright ORBIFLY December 2007 - Disclaimer

ORBIFLY MET'MAP TEAM :

Programming & Development : Alexandra Zaïnal
Concept & Development : Baudouin d'Aumeries
Co-Development & Prog : Marc-Olivier Méhu
Technical & hardware support : Manuel Goepfert

Contact : metmap@orbifly.com




SOURCES & CREDITS :

   NOAA